Terminal Aerodrome Forecast
Issued by NWS

Home | Current Version | Previous Version | Text Only | Print | Product List | Glossary On
Versions: 1 2 3 4 5 6 7 8 9 10 11 12 13 14 15 16
000
FTUS45 KRIW 280520
TAFWRL
TAF
KWRL 280520Z 2806/2906 16007KT 5SM FU FEW110 SCT200
     FM282000 07008KT P6SM SCT110
     FM290400 16008KT P6SM FEW120 SCT200=

USA.gov is the U.S. government's official web portal to all federal, state and local government web resources and services.